M I D A S
Marine Information and Data Acquisition System
Tripno 596 of the Zeeleeuw from 2003-09-23 06:59:19 to 2003-09-23 12:19:17
Back to CruiseResearch ActivitiesStationsMapUnderway DataData graphs

EquipmentUnitsComment
TimeDGPSUTC
LatitudeDGPSDM.mWGS84
LongitudeDGPSDM.mWGS84
HeadingGyrodeg 
SOGDGPSknotsSpeed over ground
COGDGPSdegCourse over ground
DepthEcho soundermeters200 kHz
Missing or incorrect values are displayed as -999
Navigation data collected by the RV Zeeleeuw from 2003-09-23 06:59:19 to 2003-09-23 12:19:17
                                                                                    Next 1000 lines
Time Latitude Longitude Heading SOG COG Depth
2003-09-23 06:59:29 51°13.68 2°55.79 20.2 0.7 205 -999
2003-09-23 06:59:35 51°13.68 2°55.79 17 0.6 9 -999
2003-09-23 06:59:39 51°13.68 2°55.79 11.1 1.5 1 -999
2003-09-23 06:59:45 51°13.68 2°55.79 3.9 2.6 357 -999
2003-09-23 06:59:49 51°13.69 2°55.79 355.7 3.3 349 -999
2003-09-23 06:59:53 51°13.69 2°55.79 349 4 341 14
2003-09-23 06:59:59 51°13.7 2°55.78 340.6 4.3 333 14.3
2003-09-23 07:00:03 51°13.7 2°55.78 335 4.6 328 14.6
2003-09-23 07:00:07 51°13.71 2°55.77 328.7 4.8 320 14
2003-09-23 07:00:13 51°13.71 2°55.76 325 4.9 318 13.7
2003-09-23 07:00:19 51°13.72 2°55.75 322.2 5.1 315 12.2
2003-09-23 07:00:23 51°13.72 2°55.75 320.9 5.1 315 11.6
2003-09-23 07:00:27 51°13.73 2°55.74 321.7 5.1 317 11.4
2003-09-23 07:00:33 51°13.73 2°55.73 324.2 5.1 319 11.5
2003-09-23 07:00:39 51°13.74 2°55.72 326 5.2 321 11.4
2003-09-23 07:00:43 51°13.75 2°55.72 327.4 5.3 322 11.4
2003-09-23 07:00:47 51°13.75 2°55.71 328.1 5.3 324 11.6
2003-09-23 07:00:53 51°13.76 2°55.7 328.7 5.3 325 11.7
2003-09-23 07:00:59 51°13.76 2°55.69 329.5 5.3 326 11.6
2003-09-23 07:01:03 51°13.77 2°55.69 330.6 5.3 327 11.7
2003-09-23 07:01:09 51°13.78 2°55.68 331.6 5.3 327 11.8
2003-09-23 07:01:13 51°13.78 2°55.68 332.4 5.3 328 11.7
2003-09-23 07:01:17 51°13.79 2°55.67 332.9 5.3 329 11.9
2003-09-23 07:01:23 51°13.8 2°55.66 334.1 5.4 330 11.9
2003-09-23 07:01:27 51°13.8 2°55.66 335.2 5.4 330 11.8
2003-09-23 07:01:33 51°13.81 2°55.65 336.7 5.3 333 11.9
2003-09-23 07:01:39 51°13.82 2°55.65 337.9 5.4 333 11.9
2003-09-23 07:01:43 51°13.82 2°55.64 338.4 5.4 334 12
2003-09-23 07:01:47 51°13.83 2°55.64 338.9 5.4 334 11.6
2003-09-23 07:01:53 51°13.83 2°55.63 339.3 5.4 335 11.7
2003-09-23 07:01:59 51°13.84 2°55.63 339.6 5.4 335 11.5
2003-09-23 07:02:03 51°13.85 2°55.62 339.9 5.4 336 11.4
2003-09-23 07:02:07 51°13.85 2°55.62 340.5 5.4 336 11.5
2003-09-23 07:02:13 51°13.86 2°55.61 340.7 5.4 336 11.5
2003-09-23 07:02:19 51°13.87 2°55.61 340.8 5.4 336 11.7
2003-09-23 07:02:23 51°13.88 2°55.6 340.3 5.5 336 11.5
2003-09-23 07:02:29 51°13.88 2°55.6 339.7 5.5 335 11.4
2003-09-23 07:02:33 51°13.89 2°55.59 339.3 5.5 336 11.7
2003-09-23 07:02:39 51°13.9 2°55.59 339.5 5.6 335 11.7
2003-09-23 07:02:43 51°13.9 2°55.58 339.7 5.7 336 12
2003-09-23 07:02:49 51°13.91 2°55.58 339.9 5.7 335 12
2003-09-23 07:02:53 51°13.92 2°55.57 339.6 5.8 335 11.8
2003-09-23 07:02:59 51°13.93 2°55.57 339.4 5.8 336 11.9
2003-09-23 07:03:03 51°13.93 2°55.56 339.9 5.8 335 11.7
2003-09-23 07:03:07 51°13.94 2°55.56 340 5.8 336 11.9
2003-09-23 07:03:13 51°13.95 2°55.55 340.2 5.9 335 11.9
2003-09-23 07:03:19 51°13.96 2°55.54 340.3 5.9 337 11.9
2003-09-23 07:03:23 51°13.96 2°55.54 340.4 5.9 336 11.9
2003-09-23 07:03:29 51°13.97 2°55.53 340.4 5.9 337 11.9
2003-09-23 07:03:33 51°13.98 2°55.53 340.4 5.9 336 11.7
2003-09-23 07:03:39 51°13.99 2°55.52 340.4 6 337 11.8
2003-09-23 07:03:43 51°13.99 2°55.52 340.4 6 336 11.6
2003-09-23 07:03:47 51°14 2°55.52 340.4 5.9 336 11.6
2003-09-23 07:03:53 51°14.01 2°55.51 340.2 5.9 336 11.6
2003-09-23 07:03:59 51°14.02 2°55.5 340.1 5.9 336 11.5
2003-09-23 07:04:03 51°14.02 2°55.5 339.8 5.9 336 11.4
2003-09-23 07:04:07 51°14.03 2°55.49 339.8 5.9 335 11.5
2003-09-23 07:04:13 51°14.04 2°55.49 339.5 5.9 335 11.5
2003-09-23 07:04:19 51°14.05 2°55.48 339.2 5.9 334 11.5
2003-09-23 07:04:23 51°14.05 2°55.48 338.9 6 335 11.5
2003-09-23 07:04:27 51°14.06 2°55.47 338.9 6.1 335 11.4
2003-09-23 07:04:33 51°14.07 2°55.46 338.8 6.1 335 11.5
2003-09-23 07:04:39 51°14.08 2°55.46 338.9 6.2 335 11.4
2003-09-23 07:04:43 51°14.09 2°55.45 339.3 6.3 335 11.4
2003-09-23 07:04:49 51°14.09 2°55.45 339 6.3 334 11.5
2003-09-23 07:04:53 51°14.1 2°55.44 338.1 6.4 333 11.5
2003-09-23 07:04:59 51°14.11 2°55.43 337.4 6.5 333 11.6
2003-09-23 07:05:03 51°14.12 2°55.43 337.2 6.5 333 11.4
2003-09-23 07:05:07 51°14.12 2°55.42 337.6 6.8 334 11.5
2003-09-23 07:05:13 51°14.13 2°55.41 337.7 7 333 11.5
2003-09-23 07:05:19 51°14.15 2°55.41 337.8 7.3 333 11.6
2003-09-23 07:05:23 51°14.15 2°55.4 337.3 7.4 332 11.8
2003-09-23 07:05:29 51°14.16 2°55.39 336.2 7.6 331 11.9
2003-09-23 07:05:33 51°14.17 2°55.38 334.8 7.7 329 11.9
2003-09-23 07:05:39 51°14.18 2°55.37 333.4 7.8 328 11.9
2003-09-23 07:05:43 51°14.19 2°55.36 331.9 7.8 327 11.9
2003-09-23 07:05:47 51°14.2 2°55.36 330.4 8 325 12
2003-09-23 07:05:53 51°14.21 2°55.34 329 8.2 324 11.8
2003-09-23 07:05:59 51°14.22 2°55.33 327.9 8.3 321 11.7
2003-09-23 07:06:03 51°14.23 2°55.32 325.8 8.3 320 11.8
2003-09-23 07:06:09 51°14.24 2°55.31 324.2 8.4 319 11.9
2003-09-23 07:06:13 51°14.24 2°55.3 322.4 8.5 317 11.9
2003-09-23 07:06:19 51°14.25 2°55.28 320.6 8.7 314 11.8
2003-09-23 07:06:23 51°14.26 2°55.27 318.8 8.7 314 11.9
2003-09-23 07:06:29 51°14.27 2°55.25 317.9 8.9 312 12.3
2003-09-23 07:06:33 51°14.28 2°55.24 317.4 8.8 313 12.2
2003-09-23 07:06:39 51°14.29 2°55.22 317 9.1 312 12.2
2003-09-23 07:06:43 51°14.29 2°55.21 316.3 9.2 311 11.9
2003-09-23 07:06:49 51°14.3 2°55.19 315.2 9.5 310 11.7
2003-09-23 07:06:53 51°14.31 2°55.18 315 9.5 310 12
2003-09-23 07:06:59 51°14.32 2°55.16 314.7 9.7 311 12.3
2003-09-23 07:07:03 51°14.33 2°55.14 314.9 9.7 311 11.8
2003-09-23 07:07:07 51°14.33 2°55.13 315.6 9.7 311 12
2003-09-23 07:07:13 51°14.34 2°55.11 316.1 9.8 312 12.3
2003-09-23 07:07:19 51°14.35 2°55.09 316.6 9.9 313 12.1
2003-09-23 07:07:23 51°14.36 2°55.08 317.2 10 313 11.6
2003-09-23 07:07:29 51°14.37 2°55.06 317.6 10.1 312 11.9
2003-09-23 07:07:33 51°14.38 2°55.05 317.3 10 312 11.6
2003-09-23 07:07:39 51°14.39 2°55.03 316.8 9.8 309 11.8
2003-09-23 07:07:43 51°14.4 2°55.01 314.2 10 305 11.5
2003-09-23 07:07:47 51°14.4 2°55 310.6 10 303 11.3
2003-09-23 07:07:53 51°14.41 2°54.97 307.8 10.1 299 11.2
2003-09-23 07:07:59 51°14.42 2°54.95 304.4 10 296 11.7
2003-09-23 07:08:03 51°14.42 2°54.93 301.4 9.9 292 11.3
2003-09-23 07:08:09 51°14.43 2°54.91 298.5 10 289 11.7
2003-09-23 07:08:13 51°14.43 2°54.89 297.5 10 288 12
2003-09-23 07:08:19 51°14.44 2°54.87 297.9 10.1 288 12.8
2003-09-23 07:08:23 51°14.44 2°54.85 297.5 10 285 12.1
2003-09-23 07:08:27 51°14.44 2°54.83 296.5 10.1 284 11.4
2003-09-23 07:08:33 51°14.45 2°54.81 295.4 10.1 283 12.2
2003-09-23 07:08:39 51°14.45 2°54.78 292 10.4 279 11.8
2003-09-23 07:08:43 51°14.45 2°54.76 288.5 10.5 278 11.9
2003-09-23 07:08:49 51°14.45 2°54.73 284.3 10.7 274 11.9
2003-09-23 07:08:53 51°14.45 2°54.71 281.2 10.8 271 12.2
2003-09-23 07:08:59 51°14.45 2°54.68 279.6 10.9 268 11.9
2003-09-23 07:09:03 51°14.45 2°54.66 276.8 11 268 11.8
2003-09-23 07:09:07 51°14.45 2°54.64 274.3 11.3 263 11.6
2003-09-23 07:09:11 51°14.45 2°54.62 272.5 11.1 260 11.6
2003-09-23 07:09:19 51°14.45 2°54.59 270 11 260 11.7
2003-09-23 07:09:23 51°14.44 2°54.57 267.8 11.1 258 11.7
2003-09-23 07:09:27 51°14.44 2°54.55 266.3 11.1 260 12.1
2003-09-23 07:09:33 51°14.44 2°54.52 265.2 11.5 258 12.8
2003-09-23 07:09:39 51°14.43 2°54.49 265.5 11.4 256 12.4
2003-09-23 07:09:43 51°14.43 2°54.47 263.6 11.7 255 12.3
2003-09-23 07:09:47 51°14.42 2°54.45 260.9 11.7 252 12.3
2003-09-23 07:09:53 51°14.42 2°54.42 257.5 11.8 247 11.7
2003-09-23 07:09:59 51°14.41 2°54.39 253.9 12 247 10.9
2003-09-23 07:10:03 51°14.4 2°54.37 251.9 12 242 10.8
2003-09-23 07:10:09 51°14.39 2°54.34 250.5 12.1 243 10.5
2003-09-23 07:10:13 51°14.39 2°54.32 248.1 12.4 244 10.6
2003-09-23 07:10:19 51°14.38 2°54.29 247.7 12.4 243 10.6
2003-09-23 07:10:23 51°14.37 2°54.28 248.2 12.7 239 10.2
2003-09-23 07:10:27 51°14.36 2°54.26 246 12.7 243 10.2
2003-09-23 07:10:33 51°14.35 2°54.23 245.8 12.7 236 10.5
2003-09-23 07:10:39 51°14.34 2°54.2 243.1 12.9 238 10.8
2003-09-23 07:10:43 51°14.33 2°54.18 243.5 12.9 239 10.3
2003-09-23 07:10:49 51°14.32 2°54.15 243.9 13 238 10.4
2003-09-23 07:10:53 51°14.32 2°54.13 247.1 12.7 244 10.1
2003-09-23 07:10:59 51°14.31 2°54.1 247.5 12.9 245 10.2
2003-09-23 07:11:03 51°14.3 2°54.08 250.5 13 247 10.3
2003-09-23 07:11:09 51°14.29 2°54.05 251.6 12.9 246 10.2
2003-09-23 07:11:13 51°14.29 2°54.03 251.6 12.8 245 10.2
2003-09-23 07:11:19 51°14.28 2°54 251.5 12.9 241 10.5
2003-09-23 07:11:23 51°14.27 2°53.97 249 13.2 243 10
2003-09-23 07:11:29 51°14.26 2°53.95 246.9 12.9 241 9.5
2003-09-23 07:11:33 51°14.25 2°53.93 245.3 12.8 238 9.7
2003-09-23 07:11:39 51°14.24 2°53.9 244.9 12.9 242 9.9
2003-09-23 07:11:43 51°14.23 2°53.88 245.7 12.9 239 10
2003-09-23 07:11:49 51°14.22 2°53.85 246.7 12.9 239 10.1
2003-09-23 07:11:53 51°14.22 2°53.83 247 13 242 9.6
2003-09-23 07:11:59 51°14.21 2°53.8 245.9 13.2 243 9.8
2003-09-23 07:12:03 51°14.2 2°53.78 248.7 13 242 10.2
2003-09-23 07:12:07 51°14.19 2°53.76 246.9 13.1 245 10.7
2003-09-23 07:12:13 51°14.18 2°53.73 248.4 13 241 10.1
2003-09-23 07:12:19 51°14.17 2°53.7 245.8 13.3 243 10
2003-09-23 07:12:23 51°14.16 2°53.68 247 13.3 241 10.5
2003-09-23 07:12:27 51°14.15 2°53.66 245.9 13.5 243 10.7
2003-09-23 07:12:33 51°14.14 2°53.63 247.3 13.6 240 10.5
2003-09-23 07:12:39 51°14.13 2°53.59 247.3 14 242 10.6
2003-09-23 07:12:43 51°14.13 2°53.57 247.6 13.9 242 10.6
2003-09-23 07:12:47 51°14.12 2°53.55 247.6 13.9 241 10.6
2003-09-23 07:12:51 51°14.11 2°53.53 247.3 14.2 243 10.9
2003-09-23 07:12:59 51°14.1 2°53.48 248 14.3 241 10.4
2003-09-23 07:13:03 51°14.09 2°53.46 247.7 14.1 243 10.8
2003-09-23 07:13:07 51°14.08 2°53.44 248.1 14.1 240 10.6
2003-09-23 07:13:13 51°14.07 2°53.41 247.4 14.3 242 10.6
2003-09-23 07:13:19 51°14.06 2°53.37 248.3 14.2 243 10.7
2003-09-23 07:13:23 51°14.05 2°53.35 248.2 14.2 242 10.5
2003-09-23 07:13:27 51°14.05 2°53.33 247.9 14.3 245 10.7
2003-09-23 07:13:33 51°14.03 2°53.29 249.2 14.2 241 10.6
2003-09-23 07:13:39 51°14.02 2°53.26 247.5 14.2 244 10.6
2003-09-23 07:13:43 51°14.02 2°53.24 247.7 14.2 241 10.8
2003-09-23 07:13:47 51°14.01 2°53.22 247.7 14.3 243 11
2003-09-23 07:13:53 51°14 2°53.18 246.8 14.2 242 10.8
2003-09-23 07:13:59 51°13.99 2°53.15 248.1 14.3 241 11.1
2003-09-23 07:14:03 51°13.98 2°53.13 247.5 14.4 241 10.9
2003-09-23 07:14:07 51°13.97 2°53.1 247.6 14.3 242 11.2
2003-09-23 07:14:11 51°13.96 2°53.08 247.1 14.2 242 11.3
2003-09-23 07:14:19 51°13.95 2°53.04 247.2 14.6 238 10.9
2003-09-23 07:14:23 51°13.94 2°53.02 248.2 14.2 246 11.1
2003-09-23 07:14:27 51°13.93 2°52.99 248.5 14.2 240 11
2003-09-23 07:14:33 51°13.92 2°52.96 246.5 14.5 245 11.3
2003-09-23 07:14:39 51°13.91 2°52.93 248.2 14.2 240 10.9
2003-09-23 07:14:43 51°13.9 2°52.9 247.6 14.3 243 11.2
2003-09-23 07:14:49 51°13.89 2°52.87 247.8 14.1 240 11.3
2003-09-23 07:14:53 51°13.89 2°52.85 247.2 14.1 242 11.1
2003-09-23 07:14:59 51°13.87 2°52.82 247.6 14.2 239 11.4
2003-09-23 07:15:03 51°13.87 2°52.79 247.3 14.2 243 11.6
2003-09-23 07:15:07 51°13.86 2°52.77 246.1 14.4 239 11.1
2003-09-23 07:15:13 51°13.85 2°52.74 248.2 14.1 246 11
2003-09-23 07:15:19 51°13.84 2°52.71 247.3 14.3 237 11.2
2003-09-23 07:15:23 51°13.83 2°52.68 246.8 14.3 245 11.4
2003-09-23 07:15:27 51°13.82 2°52.66 247.3 14.2 238 11.4
2003-09-23 07:15:33 51°13.81 2°52.63 247.5 14.2 243 11.6
2003-09-23 07:15:39 51°13.8 2°52.6 246.3 14.1 243 11.8
2003-09-23 07:15:43 51°13.79 2°52.57 247 14.4 239 11.2
2003-09-23 07:15:49 51°13.78 2°52.54 246.3 14.2 241 11.7
2003-09-23 07:15:53 51°13.77 2°52.52 247.8 14.5 234 11.2
2003-09-23 07:15:59 51°13.76 2°52.48 247 14.3 247 11.3
2003-09-23 07:16:03 51°13.75 2°52.47 247.4 14.4 236 11.9
2003-09-23 07:16:09 51°13.74 2°52.43 248 14.2 246 11.5
2003-09-23 07:16:13 51°13.73 2°52.41 246.2 14.3 240 11.6
2003-09-23 07:16:19 51°13.72 2°52.38 247.5 14.2 241 11.8
2003-09-23 07:16:23 51°13.71 2°52.35 247.4 14.5 238 12
2003-09-23 07:16:29 51°13.7 2°52.32 246.2 14.3 243 11.5
2003-09-23 07:16:33 51°13.7 2°52.3 249.5 14.2 239 12.2
2003-09-23 07:16:39 51°13.69 2°52.26 248.1 14.1 244 12.1
2003-09-23 07:16:43 51°13.68 2°52.24 246.9 14.5 238 11.8
2003-09-23 07:16:47 51°13.67 2°52.22 248.7 14.1 247 11.9
2003-09-23 07:16:53 51°13.66 2°52.19 248.4 14.5 235 12
2003-09-23 07:16:59 51°13.65 2°52.15 247.1 14.1 246 11.7
2003-09-23 07:17:03 51°13.64 2°52.13 248.1 14.1 238 11.9
2003-09-23 07:17:07 51°13.63 2°52.11 246.7 14.3 242 11.5
2003-09-23 07:17:13 51°13.62 2°52.08 247.5 14.1 242 11.5
2003-09-23 07:17:19 51°13.61 2°52.04 248 14.3 242 11.7
2003-09-23 07:17:23 51°13.6 2°52.02 247.1 14.3 240 11.8
2003-09-23 07:17:27 51°13.6 2°52 247.9 14.1 245 11.3
2003-09-23 07:17:33 51°13.58 2°51.97 246.6 14.3 239 11.9
2003-09-23 07:17:39 51°13.57 2°51.93 247.1 14.4 236 11.7
2003-09-23 07:17:43 51°13.56 2°51.91 244.4 14.2 241 11.8
2003-09-23 07:17:49 51°13.55 2°51.88 247.5 14.1 242 11.5
2003-09-23 07:17:53 51°13.54 2°51.86 244.7 14.3 245 11.5
2003-09-23 07:17:59 51°13.53 2°51.83 246.4 14.5 236 11.4
2003-09-23 07:18:03 51°13.52 2°51.8 246.5 14.3 244 11.7
2003-09-23 07:18:09 51°13.51 2°51.77 247.7 14.2 241 11.9
2003-09-23 07:18:13 51°13.51 2°51.75 247.3 14.3 240 11.6
2003-09-23 07:18:19 51°13.49 2°51.71 246.8 14.3 241 11.7
2003-09-23 07:18:23 51°13.49 2°51.69 246.8 14.3 239 12.4
2003-09-23 07:18:27 51°13.48 2°51.67 247.5 14.2 244 11.8
2003-09-23 07:18:33 51°13.47 2°51.64 245.9 14.3 240 11.5
2003-09-23 07:18:39 51°13.46 2°51.61 247.8 13.9 240 11.8
2003-09-23 07:18:43 51°13.45 2°51.58 247.4 14.1 240 11.6
2003-09-23 07:18:47 51°13.44 2°51.56 245.7 14.3 241 12
2003-09-23 07:18:53 51°13.43 2°51.53 247 14.3 241 12
2003-09-23 07:18:59 51°13.42 2°51.5 247 14.1 242 12.1
2003-09-23 07:19:03 51°13.41 2°51.47 247.1 14.3 241 11.8
2003-09-23 07:19:07 51°13.4 2°51.45 247.9 14.3 241 12.4
2003-09-23 07:19:13 51°13.39 2°51.42 248.8 14.2 240 11.4
2003-09-23 07:19:19 51°13.38 2°51.38 246.2 14.1 245 12.3
2003-09-23 07:19:23 51°13.37 2°51.36 248.7 13.9 240 11.7
2003-09-23 07:19:27 51°13.36 2°51.34 245.4 14.1 244 11.9
2003-09-23 07:19:33 51°13.35 2°51.31 248.3 14.1 242 11.8
2003-09-23 07:19:39 51°13.34 2°51.27 248.2 14.1 243 11.8
2003-09-23 07:19:43 51°13.34 2°51.25 248.3 14.2 243 11.7
2003-09-23 07:19:47 51°13.33 2°51.23 246.9 14.4 243 12
2003-09-23 07:19:53 51°13.32 2°51.2 248.6 14.2 243 12
2003-09-23 07:19:59 51°13.31 2°51.16 246.5 14.2 242 12.2
2003-09-23 07:20:03 51°13.3 2°51.14 247.5 14.3 244 12.1
2003-09-23 07:20:09 51°13.29 2°51.11 245.5 14.4 243 12.4
2003-09-23 07:20:13 51°13.28 2°51.08 248.4 14.3 248 12
2003-09-23 07:20:19 51°13.27 2°51.05 247.3 14.2 243 12.6
2003-09-23 07:20:23 51°13.26 2°51.03 248.7 14.2 244 12.1
2003-09-23 07:20:27 51°13.25 2°51.01 247.6 14.2 240 12.2
2003-09-23 07:20:33 51°13.24 2°50.98 247.2 14.4 239 12.6
2003-09-23 07:20:39 51°13.23 2°50.94 248.1 14.1 243 12.4
2003-09-23 07:20:43 51°13.22 2°50.92 246.7 14.4 240 12
2003-09-23 07:20:47 51°13.22 2°50.9 248.7 14.2 244 12.3
2003-09-23 07:20:53 51°13.2 2°50.86 247.2 14.4 240 12.1
2003-09-23 07:20:59 51°13.19 2°50.83 248.5 14.1 244 12.4
2003-09-23 07:21:03 51°13.19 2°50.81 248.3 14.2 238 12.4
2003-09-23 07:21:07 51°13.18 2°50.79 247 14.3 243 12.2
2003-09-23 07:21:13 51°13.17 2°50.75 248.3 14.2 240 12.4
2003-09-23 07:21:19 51°13.16 2°50.72 247.6 14.2 242 12
2003-09-23 07:21:23 51°13.15 2°50.7 246.8 14.3 241 12.1
2003-09-23 07:21:27 51°13.14 2°50.68 246.9 14 242 12.5
2003-09-23 07:21:31 51°13.13 2°50.65 247 14.3 239 12.1
2003-09-23 07:21:39 51°13.12 2°50.61 246.2 14.1 246 12.5
2003-09-23 07:21:43 51°13.11 2°50.59 248.8 14.3 237 12.3
2003-09-23 07:21:47 51°13.1 2°50.57 245.8 14.3 249 12.8
2003-09-23 07:21:53 51°13.09 2°50.53 249.6 14.2 238 12.1
2003-09-23 07:21:59 51°13.08 2°50.5 246 14.1 248 12.5
2003-09-23 07:22:03 51°13.07 2°50.48 249 14 238 12.7
2003-09-23 07:22:07 51°13.07 2°50.46 246.8 14.3 244 12.6
2003-09-23 07:22:13 51°13.06 2°50.42 247.7 14.2 242 12.3
2003-09-23 07:22:19 51°13.04 2°50.39 247.3 14.2 242 12.6
2003-09-23 07:22:23 51°13.04 2°50.37 247.9 14.1 245 12.4
2003-09-23 07:22:29 51°13.03 2°50.33 247.7 14.4 241 12.5
2003-09-23 07:22:33 51°13.02 2°50.31 248.2 14 244 13.1
2003-09-23 07:22:39 51°13.01 2°50.28 248.4 14.5 235 12.3
2003-09-23 07:22:43 51°13 2°50.26 245.1 14.4 245 12.4
2003-09-23 07:22:49 51°12.99 2°50.23 248.7 14.2 237 12.2
2003-09-23 07:22:53 51°12.98 2°50.2 245.4 14.5 237 12.5
2003-09-23 07:22:59 51°12.97 2°50.17 249.4 13.9 244 12.6
2003-09-23 07:23:03 51°12.96 2°50.15 247.6 14.2 237 12.4
2003-09-23 07:23:09 51°12.95 2°50.11 247.2 14.5 243 12.1
2003-09-23 07:23:13 51°12.94 2°50.09 248.1 14.2 241 12.7
2003-09-23 07:23:19 51°12.93 2°50.06 248.1 14.4 239 12.1
2003-09-23 07:23:23 51°12.92 2°50.04 246.7 14.2 243 12
2003-09-23 07:23:29 51°12.91 2°50 249.6 14 244 12.7
2003-09-23 07:23:33 51°12.91 2°49.98 246.2 14.3 242 12.7
2003-09-23 07:23:39 51°12.89 2°49.95 247.1 14.3 238 12.3
2003-09-23 07:23:43 51°12.89 2°49.92 247.4 14.2 244 12.6
2003-09-23 07:23:49 51°12.88 2°49.89 246.7 14.4 238 12.9
2003-09-23 07:23:53 51°12.87 2°49.87 248.5 14 244 12.7
2003-09-23 07:23:59 51°12.86 2°49.84 246.7 14.4 240 12.6
2003-09-23 07:24:03 51°12.85 2°49.81 247.2 14.2 244 12.7
2003-09-23 07:24:09 51°12.84 2°49.78 247.7 14.1 242 12.5
2003-09-23 07:24:13 51°12.83 2°49.76 245.8 14.2 243 13
2003-09-23 07:24:19 51°12.82 2°49.73 248.7 14.2 235 12.7
2003-09-23 07:24:23 51°12.81 2°49.7 246.1 14.1 246 13.1
2003-09-23 07:24:27 51°12.8 2°49.68 249.4 14.1 240 13
2003-09-23 07:24:33 51°12.79 2°49.65 247.7 13.9 244 12.7
2003-09-23 07:24:39 51°12.78 2°49.62 247.2 14.1 241 12.7
2003-09-23 07:24:43 51°12.77 2°49.6 246.8 14.1 243 12.8
2003-09-23 07:24:49 51°12.76 2°49.56 247 14.2 240 13
2003-09-23 07:24:53 51°12.76 2°49.54 246.8 14.2 244 12.7
2003-09-23 07:24:59 51°12.74 2°49.51 246.9 14.3 242 12.8
2003-09-23 07:25:03 51°12.74 2°49.49 247.5 14.2 243 13
2003-09-23 07:25:07 51°12.73 2°49.46 247.6 14.2 242 12.4
2003-09-23 07:25:13 51°12.72 2°49.43 246.5 14.4 243 12.9
2003-09-23 07:25:19 51°12.71 2°49.4 248.2 13.8 241 12.9
2003-09-23 07:25:23 51°12.7 2°49.38 246.3 14.2 239 12.6
2003-09-23 07:25:27 51°12.69 2°49.35 246.1 13.9 244 13
2003-09-23 07:25:33 51°12.68 2°49.32 246.8 13.9 236 12.8
2003-09-23 07:25:39 51°12.67 2°49.29 243.9 14.1 243 12.9
2003-09-23 07:25:43 51°12.66 2°49.27 246.2 14.1 239 12.9
2003-09-23 07:25:49 51°12.65 2°49.24 245.4 14.1 238 13
2003-09-23 07:25:53 51°12.64 2°49.22 244.8 14.1 239 13.4
2003-09-23 07:25:59 51°12.63 2°49.18 246.9 14.2 237 12.9
2003-09-23 07:26:03 51°12.62 2°49.16 243.5 14.3 241 13
2003-09-23 07:26:09 51°12.61 2°49.13 246.2 14 241 13
2003-09-23 07:26:13 51°12.6 2°49.11 245.2 13.9 240 12.8
2003-09-23 07:26:19 51°12.59 2°49.08 244.3 14.1 238 13.4
2003-09-23 07:26:23 51°12.58 2°49.06 243.8 14 236 13.3
2003-09-23 07:26:27 51°12.57 2°49.03 242.2 14.1 237 13.1
2003-09-23 07:26:33 51°12.56 2°49 242.1 14.1 239 12.6
2003-09-23 07:26:39 51°12.55 2°48.97 242.3 14.1 237 12.9
2003-09-23 07:26:43 51°12.54 2°48.95 243.7 14.3 237 12.8
2003-09-23 07:26:47 51°12.53 2°48.93 242.4 14.3 236 12.8
2003-09-23 07:26:53 51°12.52 2°48.9 245 13.9 239 12.8
2003-09-23 07:26:59 51°12.5 2°48.87 240.9 14.3 239 12.9
2003-09-23 07:27:03 51°12.5 2°48.84 244.9 14.1 244 12.8
2003-09-23 07:27:09 51°12.48 2°48.81 244.1 14.1 233 12.7
2003-09-23 07:27:13 51°12.48 2°48.79 242.4 13.9 240 12.9
2003-09-23 07:27:19 51°12.46 2°48.76 243.8 14 237 13.2
2003-09-23 07:27:23 51°12.46 2°48.74 242.5 14.4 236 13.2
2003-09-23 07:27:27 51°12.45 2°48.72 243.2 14 242 13.5
2003-09-23 07:27:33 51°12.43 2°48.69 243.8 14.1 233 13
2003-09-23 07:27:39 51°12.42 2°48.66 241.6 14.1 240 13
2003-09-23 07:27:43 51°12.41 2°48.64 242.1 14.4 234 13
2003-09-23 07:27:49 51°12.4 2°48.6 243.2 13.8 241 12.8
2003-09-23 07:27:53 51°12.39 2°48.58 241.8 14.2 233 12.9
2003-09-23 07:27:59 51°12.38 2°48.55 240.2 14.6 241 12.9
2003-09-23 07:28:03 51°12.37 2°48.53 244.5 13.8 240 13
2003-09-23 07:28:09 51°12.36 2°48.5 241.8 14.5 232 12.9
2003-09-23 07:28:13 51°12.35 2°48.48 242.1 14.3 239 12.7
2003-09-23 07:28:19 51°12.34 2°48.45 244.1 13.8 234 13.5
2003-09-23 07:28:23 51°12.33 2°48.42 243.1 14.1 239 12.8
2003-09-23 07:28:27 51°12.32 2°48.4 242.1 14.1 235 12.6
2003-09-23 07:28:33 51°12.31 2°48.37 243 13.9 236 12.8
2003-09-23 07:28:39 51°12.29 2°48.34 241.6 14.3 236 12.6
2003-09-23 07:28:43 51°12.29 2°48.32 242.6 13.9 241 13.2
2003-09-23 07:28:47 51°12.28 2°48.3 243.8 14.3 233 13
2003-09-23 07:28:53 51°12.27 2°48.27 241.9 14.6 242 12.9
2003-09-23 07:28:59 51°12.25 2°48.24 245.4 13.8 239 13.1
2003-09-23 07:29:03 51°12.25 2°48.22 243.8 13.8 235 13.1
2003-09-23 07:29:07 51°12.24 2°48.19 240.9 14.3 238 12.9
2003-09-23 07:29:13 51°12.22 2°48.16 243.6 14.3 238 13.4
2003-09-23 07:29:19 51°12.21 2°48.13 244.2 13.8 239 13.3
2003-09-23 07:29:23 51°12.2 2°48.11 242.1 14.4 236 13
2003-09-23 07:29:29 51°12.19 2°48.08 241.6 14.4 241 13.3
2003-09-23 07:29:31 51°12.19 2°48.07 243.9 14 236 13.1
2003-09-23 07:29:39 51°12.17 2°48.02 241.9 14.3 239 13.1
2003-09-23 07:29:43 51°12.16 2°48 242.6 14.5 239 13.1
2003-09-23 07:29:47 51°12.15 2°47.98 242.4 14.3 239 13
2003-09-23 07:29:53 51°12.14 2°47.95 244.2 14.1 243 12.8
2003-09-23 07:29:59 51°12.13 2°47.91 243.1 14.5 240 13
2003-09-23 07:30:03 51°12.12 2°47.89 244.1 14.4 242 12.9
2003-09-23 07:30:07 51°12.11 2°47.87 244.7 14.1 238 12.7
2003-09-23 07:30:13 51°12.1 2°47.84 242.9 14.2 241 12.9
2003-09-23 07:30:19 51°12.09 2°47.81 243.5 14.5 237 12.8
2003-09-23 07:30:23 51°12.08 2°47.78 243.7 14 242 12.8
2003-09-23 07:30:29 51°12.07 2°47.75 244.1 14.2 235 13
2003-09-23 07:30:33 51°12.06 2°47.73 242.3 14.7 238 13
2003-09-23 07:30:39 51°12.05 2°47.7 243.8 14.2 239 12.9
2003-09-23 07:30:43 51°12.04 2°47.68 243.8 14 237 13.1
2003-09-23 07:30:49 51°12.03 2°47.65 242 14.4 239 12.9
2003-09-23 07:30:53 51°12.02 2°47.62 243.2 14.5 239 12.9
2003-09-23 07:30:59 51°12.01 2°47.59 244.5 14.1 241 13
2003-09-23 07:31:03 51°12 2°47.57 243.7 14.5 236 12.9
2003-09-23 07:31:09 51°11.99 2°47.54 244.5 14.3 243 13
2003-09-23 07:31:13 51°11.98 2°47.52 244.4 14.2 237 12.9
2003-09-23 07:31:19 51°11.97 2°47.48 244.5 13.9 242 12.9
2003-09-23 07:31:23 51°11.96 2°47.46 243.6 14.6 233 12.6
2003-09-23 07:31:27 51°11.95 2°47.44 243 14.4 242 12.6
2003-09-23 07:31:33 51°11.94 2°47.41 245 14.1 235 12.7
2003-09-23 07:31:39 51°11.93 2°47.38 242.5 14.1 243 12.9
2003-09-23 07:31:43 51°11.92 2°47.36 243.4 14.4 233 12.8
2003-09-23 07:31:49 51°11.91 2°47.32 242.3 14.1 239 12.5
2003-09-23 07:31:53 51°11.9 2°47.3 241.2 14.2 236 12.2
2003-09-23 07:31:57 51°11.89 2°47.28 243.1 14 242 12.6
2003-09-23 07:32:03 51°11.88 2°47.25 242.8 14.2 233 12.7
2003-09-23 07:32:09 51°11.86 2°47.22 242 14.5 240 12.4
2003-09-23 07:32:13 51°11.85 2°47.2 243.8 14 237 12.4
2003-09-23 07:32:19 51°11.84 2°47.16 243.1 13.9 237 12.6
2003-09-23 07:32:23 51°11.83 2°47.14 240.7 14.6 238 12.3
2003-09-23 07:32:29 51°11.82 2°47.11 246.4 14.2 247 12.6
2003-09-23 07:32:33 51°11.82 2°47.09 248.8 13.9 242 12.6
2003-09-23 07:32:39 51°11.81 2°47.05 248.9 14.3 248 12.4
2003-09-23 07:32:43 51°11.8 2°47.03 251.9 14.3 247 12.4
2003-09-23 07:32:47 51°11.8 2°47.01 253.9 13.8 249 12.9
2003-09-23 07:32:53 51°11.79 2°46.97 253.2 14 244 12.3
2003-09-23 07:32:59 51°11.78 2°46.94 253.3 13.8 252 12.6
2003-09-23 07:33:03 51°11.77 2°46.91 255.1 14 246 12.5
2003-09-23 07:33:07 51°11.77 2°46.89 254.7 14 250 12.6
2003-09-23 07:33:13 51°11.76 2°46.86 254.8 14 249 12.6
2003-09-23 07:33:19 51°11.75 2°46.82 254 14.1 250 12.6
2003-09-23 07:33:23 51°11.75 2°46.8 255 14.1 250 12.6
2003-09-23 07:33:29 51°11.74 2°46.76 254.7 14.1 248 12.3
2003-09-23 07:33:33 51°11.73 2°46.74 255.2 14 251 12.5
2003-09-23 07:33:39 51°11.72 2°46.71 254.1 14.3 248 12.5
2003-09-23 07:33:43 51°11.72 2°46.68 255.6 13.9 251 12.7
2003-09-23 07:33:49 51°11.71 2°46.65 254.4 14.2 245 12.6
2003-09-23 07:33:53 51°11.7 2°46.62 254.1 14 253 12.7
2003-09-23 07:33:59 51°11.7 2°46.59 255.9 14.2 245 12.4
2003-09-23 07:34:03 51°11.69 2°46.57 252.9 14.2 251 12.8
2003-09-23 07:34:07 51°11.69 2°46.54 256.1 13.9 247 13.1
2003-09-23 07:34:13 51°11.68 2°46.51 254 14 248 12.8
2003-09-23 07:34:19 51°11.67 2°46.47 253.6 14.2 249 13.1
2003-09-23 07:34:23 51°11.66 2°46.45 254.3 14 249 13.3
2003-09-23 07:34:27 51°11.66 2°46.43 253.8 14.1 250 13.3
2003-09-23 07:34:33 51°11.65 2°46.39 254.6 14 250 12.8
2003-09-23 07:34:39 51°11.64 2°46.36 254.1 14.2 249 13.1
2003-09-23 07:34:43 51°11.63 2°46.33 255.4 13.9 250 13.1
2003-09-23 07:34:49 51°11.62 2°46.3 254.2 14.3 245 12.8
2003-09-23 07:34:51 51°11.62 2°46.29 252.7 14.1 251 13.2
2003-09-23 07:34:59 51°11.61 2°46.24 254.7 14 247 13.2
2003-09-23 07:35:03 51°11.6 2°46.22 252.4 14.3 248 13.3
2003-09-23 07:35:09 51°11.6 2°46.18 254.7 14.1 252 12.8
2003-09-23 07:35:13 51°11.59 2°46.16 254.3 14 247 13.4
2003-09-23 07:35:19 51°11.58 2°46.13 253.8 14.2 249 13.1
2003-09-23 07:35:23 51°11.58 2°46.1 253.6 14.1 248 13.1
2003-09-23 07:35:29 51°11.57 2°46.07 254 14 247 13.3
2003-09-23 07:35:33 51°11.56 2°46.05 252.5 14.4 246 13.3
2003-09-23 07:35:39 51°11.55 2°46.01 252.8 14.1 252 13.5
2003-09-23 07:35:43 51°11.55 2°45.99 253.3 14.1 245 12.8
2003-09-23 07:35:49 51°11.54 2°45.95 252.8 14.1 249 13
2003-09-23 07:35:53 51°11.53 2°45.93 254.1 14 249 13
2003-09-23 07:35:59 51°11.52 2°45.89 252.6 14.2 251 13.2
2003-09-23 07:36:03 51°11.52 2°45.87 254.2 14 248 13.3
2003-09-23 07:36:07 51°11.51 2°45.85 253.3 14.2 245 12.7
2003-09-23 07:36:13 51°11.5 2°45.81 252.4 14.1 250 12.9
2003-09-23 07:36:19 51°11.49 2°45.78 253.6 14.2 247 13.1
2003-09-23 07:36:23 51°11.49 2°45.76 252.9 14.3 247 13
2003-09-23 07:36:29 51°11.48 2°45.72 253.9 14 249 12.9
2003-09-23 07:36:33 51°11.48 2°45.7 254.7 14 250 13.2
2003-09-23 07:36:39 51°11.47 2°45.66 254.7 14.1 248 13.1
2003-09-23 07:36:43 51°11.46 2°45.64 253.5 14.3 250 13.3
2003-09-23 07:36:47 51°11.46 2°45.62 254.2 14.2 248 13.1
2003-09-23 07:36:53 51°11.45 2°45.58 253.8 13.9 251 13.5
2003-09-23 07:36:59 51°11.44 2°45.55 253.2 14.1 246 13
2003-09-23 07:37:03 51°11.43 2°45.52 252.5 14.3 251 13.3
2003-09-23 07:37:07 51°11.43 2°45.5 254.4 14.1 249 13.3
2003-09-23 07:37:13 51°11.42 2°45.47 253.7 14 246 13.4
2003-09-23 07:37:19 51°11.41 2°45.43 252 14.2 251 13.2
2003-09-23 07:37:23 51°11.4 2°45.41 254 14.1 248 12.8
2003-09-23 07:37:27 51°11.4 2°45.38 252.4 14.4 252 13.1
2003-09-23 07:37:31 51°11.39 2°45.36 254.5 14.2 250 13.2
2003-09-23 07:37:39 51°11.38 2°45.31 253.9 14.2 251 13.4
2003-09-23 07:37:43 51°11.38 2°45.29 254 14.3 248 13
2003-09-23 07:37:47 51°11.37 2°45.27 253.8 14.2 250 13.5
2003-09-23 07:37:53 51°11.36 2°45.23 254.1 14.3 246 13.3
2003-09-23 07:37:59 51°11.35 2°45.2 254 14.1 251 13.2
2003-09-23 07:38:03 51°11.35 2°45.17 253.8 14.3 246 13
2003-09-23 07:38:09 51°11.34 2°45.14 253.7 14.2 251 13.2
2003-09-23 07:38:13 51°11.33 2°45.11 253.8 13.9 248 12.9
2003-09-23 07:38:19 51°11.33 2°45.08 253.7 14.2 248 13.2
2003-09-23 07:38:23 51°11.32 2°45.06 253 14.3 249 13.4
2003-09-23 07:38:27 51°11.31 2°45.03 253.2 13.9 248 13
2003-09-23 07:38:31 51°11.31 2°45.01 252.6 14 248 13.1
2003-09-23 07:38:39 51°11.3 2°44.96 252.5 14.2 251 13.1
2003-09-23 07:38:43 51°11.29 2°44.94 254.7 13.8 249 13
2003-09-23 07:38:49 51°11.28 2°44.91 253.1 14 248 12.8
2003-09-23 07:38:53 51°11.28 2°44.88 252.6 14.2 252 13
2003-09-23 07:38:59 51°11.27 2°44.85 254.1 14 245 13.1
2003-09-23 07:39:03 51°11.26 2°44.83 252.3 14.2 249 12.6
2003-09-23 07:39:09 51°11.26 2°44.79 255.1 13.9 250 13.3
2003-09-23 07:39:13 51°11.25 2°44.77 253.8 14.1 243 12.7
2003-09-23 07:39:19 51°11.24 2°44.73 251.8 14.1 253 13.1
2003-09-23 07:39:23 51°11.23 2°44.71 253.1 14.4 242 13.2
2003-09-23 07:39:29 51°11.23 2°44.68 252.4 14 252 12.7
2003-09-23 07:39:33 51°11.22 2°44.65 254.6 14.1 245 12.9
2003-09-23 07:39:39 51°11.21 2°44.62 253.3 14 252 12.9
2003-09-23 07:39:43 51°11.21 2°44.6 253.1 14.2 244 13.1
2003-09-23 07:39:49 51°11.2 2°44.56 253.6 13.9 250 12.8
2003-09-23 07:39:53 51°11.19 2°44.54 253.1 14 245 12.8
2003-09-23 07:39:59 51°11.18 2°44.5 252.2 14 251 12.8
2003-09-23 07:40:03 51°11.18 2°44.48 253.7 13.9 248 13.3
2003-09-23 07:40:09 51°11.17 2°44.45 253.3 14 248 13.1
2003-09-23 07:40:13 51°11.16 2°44.42 252.3 14 249 13.2
2003-09-23 07:40:19 51°11.15 2°44.39 253.7 13.8 248 13.4
2003-09-23 07:40:23 51°11.15 2°44.37 252.4 14 247 13.5
2003-09-23 07:40:27 51°11.14 2°44.34 252.8 14.1 249 13.2
2003-09-23 07:40:33 51°11.14 2°44.31 254 13.9 249 13.2
2003-09-23 07:40:39 51°11.13 2°44.27 253.5 14 248 13
2003-09-23 07:40:43 51°11.12 2°44.25 252.8 14.1 250 13.2
2003-09-23 07:40:47 51°11.12 2°44.23 253.9 14 248 13.2
2003-09-23 07:40:53 51°11.11 2°44.19 253.4 13.8 251 12.9
2003-09-23 07:40:59 51°11.1 2°44.16 253.3 14 249 13.1
2003-09-23 07:41:03 51°11.09 2°44.14 253 14 250 12.9
2003-09-23 07:41:09 51°11.09 2°44.1 254.4 13.8 247 12.9
2003-09-23 07:41:13 51°11.08 2°44.08 253.3 13.7 247 13
2003-09-23 07:41:19 51°11.07 2°44.04 251.3 14.1 247 13
2003-09-23 07:41:23 51°11.07 2°44.02 252.5 14 251 12.8
2003-09-23 07:41:29 51°11.06 2°43.99 253.8 13.9 248 12.6
2003-09-23 07:41:33 51°11.05 2°43.96 252.6 13.8 250 13
2003-09-23 07:41:39 51°11.04 2°43.93 253.3 13.9 246 12.9
2003-09-23 07:41:43 51°11.04 2°43.91 251.2 14.1 252 13
2003-09-23 07:41:49 51°11.03 2°43.87 253.4 14 249 12.9
2003-09-23 07:41:53 51°11.02 2°43.85 253 14 247 13.2
2003-09-23 07:41:59 51°11.01 2°43.82 253.2 13.9 250 12.9
2003-09-23 07:42:03 51°11.01 2°43.79 252.6 13.8 247 13.1
2003-09-23 07:42:09 51°11 2°43.76 252.2 13.9 249 12.9
2003-09-23 07:42:13 51°10.99 2°43.74 253.3 14 250 13.3
2003-09-23 07:42:19 51°10.99 2°43.7 254.1 14 246 12.9
2003-09-23 07:42:23 51°10.98 2°43.68 252.1 13.8 250 12.9
2003-09-23 07:42:29 51°10.97 2°43.65 254.3 13.9 246 12.6
2003-09-23 07:42:33 51°10.97 2°43.62 252 14.3 250 13.1
2003-09-23 07:42:39 51°10.96 2°43.59 255.3 13.9 253 12.9
2003-09-23 07:42:43 51°10.96 2°43.56 257.6 13.8 254 12.7
2003-09-23 07:42:47 51°10.95 2°43.54 259.2 13.7 256 13.2
2003-09-23 07:42:53 51°10.95 2°43.5 260.7 14 255 13
2003-09-23 07:42:59 51°10.94 2°43.47 261.2 13.8 258 13
2003-09-23 07:43:03 51°10.94 2°43.44 262.8 13.8 255 12.5
2003-09-23 07:43:09 51°10.93 2°43.41 260.7 14 257 13.2
2003-09-23 07:43:13 51°10.93 2°43.38 263.5 13.8 257 13
2003-09-23 07:43:19 51°10.93 2°43.35 262.7 13.8 260 13.4
2003-09-23 07:43:23 51°10.92 2°43.32 263.3 14 256 13.5
2003-09-23 07:43:29 51°10.92 2°43.29 263.5 13.8 260 13.5
2003-09-23 07:43:33 51°10.91 2°43.26 263.2 13.8 257 13.5
2003-09-23 07:43:39 51°10.91 2°43.23 263.3 14 258 13.3
2003-09-23 07:43:43 51°10.91 2°43.2 262.7 14 259 13.5
2003-09-23 07:43:49 51°10.9 2°43.17 262.9 14.2 256 13.2
2003-09-23 07:43:53 51°10.9 2°43.14 262.5 13.8 261 13.5
2003-09-23 07:43:59 51°10.89 2°43.11 264.3 13.9 256 13.2
2003-09-23 07:44:03 51°10.89 2°43.08 263.4 14 262 13.3
2003-09-23 07:44:07 51°10.89 2°43.06 265 13.8 257 13.3
2003-09-23 07:44:13 51°10.88 2°43.02 263.8 13.5 260 13.4
2003-09-23 07:44:19 51°10.88 2°42.99 263.3 13.9 254 13.3
2003-09-23 07:44:23 51°10.88 2°42.96 261.7 13.9 261 13.1
2003-09-23 07:44:29 51°10.87 2°42.93 263.2 13.5 257 13.1
2003-09-23 07:44:33 51°10.87 2°42.91 262 13.5 258 13
2003-09-23 07:44:39 51°10.86 2°42.87 261.5 13.8 258 13.1
2003-09-23 07:44:43 51°10.86 2°42.85 263.4 13.7 258 13.2
2003-09-23 07:44:49 51°10.86 2°42.81 262 13.6 258 12.9
2003-09-23 07:44:51 51°10.85 2°42.8 263.5 13.4 260 13.1
2003-09-23 07:44:59 51°10.85 2°42.75 263 13.6 257 13.5
2003-09-23 07:45:03 51°10.84 2°42.73 262.3 13.7 259 13.6
2003-09-23 07:45:07 51°10.84 2°42.71 263.2 13.5 256 13.4
2003-09-23 07:45:13 51°10.84 2°42.67 261.9 13.6 259 13.5
2003-09-23 07:45:19 51°10.83 2°42.64 262.6 13.5 261 13.9
2003-09-23 07:45:23 51°10.83 2°42.61 263.6 13.5 255 13.8
2003-09-23 07:45:29 51°10.82 2°42.58 261.6 13.8 258 13.5
2003-09-23 07:45:31 51°10.82 2°42.57 263.1 13.6 260 13.4
2003-09-23 07:45:39 51°10.82 2°42.52 263.8 13.4 259 13.7
2003-09-23 07:45:43 51°10.81 2°42.5 263.7 13.4 259 13.5
2003-09-23 07:45:47 51°10.81 2°42.47 261.9 13.6 257 13.8
2003-09-23 07:45:53 51°10.81 2°42.44 262.4 13.6 258 13.5
2003-09-23 07:45:59 51°10.8 2°42.4 262.6 13.3 258 13.9
2003-09-23 07:46:03 51°10.8 2°42.38 262.9 13.3 258 13.5
2003-09-23 07:46:07 51°10.79 2°42.36 261.9 13.5 258 14
2003-09-23 07:46:11 51°10.79 2°42.33 262.8 13.4 257 13.5
2003-09-23 07:46:19 51°10.79 2°42.29 262.4 13.5 259 13.7
2003-09-23 07:46:23 51°10.78 2°42.26 262.4 13.7 257 13.9
2003-09-23 07:46:27 51°10.78 2°42.24 263.4 13.5 261 13.8
2003-09-23 07:46:33 51°10.77 2°42.21 263.9 13.2 256 13.7
2003-09-23 07:46:39 51°10.77 2°42.17 261.7 13.6 257 13.9
2003-09-23 07:46:43 51°10.77 2°42.15 262.2 13.6 259 13.7
2003-09-23 07:46:49 51°10.76 2°42.11 262.7 13.7 257 13.5
2003-09-23 07:46:53 51°10.76 2°42.09 262.6 13.5 260 13.8
2003-09-23 07:46:59 51°10.75 2°42.05 263.5 13.4 255 13.4
2003-09-23 07:47:03 51°10.75 2°42.03 262 13.6 258 13.9
2003-09-23 07:47:09 51°10.75 2°42 262.4 13.5 259 13.7
2003-09-23 07:47:11 51°10.75 2°41.98 263.4 13.4 259 13.6
2003-09-23 07:47:19 51°10.74 2°41.94 261.8 13.5 259 13.7
2003-09-23 07:47:23 51°10.74 2°41.91 262.7 13.3 260 14
2003-09-23 07:47:29 51°10.73 2°41.88 261.7 13.6 254 13.8
2003-09-23 07:47:33 51°10.73 2°41.86 262.7 13.6 262 13.7
2003-09-23 07:47:39 51°10.72 2°41.82 263 13.5 257 13.9
2003-09-23 07:47:43 51°10.72 2°41.8 262.9 13.4 260 13.8
2003-09-23 07:47:49 51°10.71 2°41.76 262.4 13.6 258 13.8
2003-09-23 07:47:53 51°10.71 2°41.74 262.2 13.6 258 14.1
2003-09-23 07:47:59 51°10.71 2°41.7 263.1 13.5 257 14.1
2003-09-23 07:48:03 51°10.7 2°41.68 262.4 13.4 260 13.8
2003-09-23 07:48:07 51°10.7 2°41.66 261.5 13.6 255 14
2003-09-23 07:48:13 51°10.7 2°41.62 262.6 13.5 261 14
2003-09-23 07:48:19 51°10.69 2°41.59 262 13.5 255 13.8
2003-09-23 07:48:23 51°10.69 2°41.56 261.9 13.7 258 13.6
2003-09-23 07:48:29 51°10.68 2°41.53 262.3 13.5 258 14.1
2003-09-23 07:48:33 51°10.68 2°41.51 263.4 13.3 257 14.2
2003-09-23 07:48:39 51°10.68 2°41.47 261.7 13.6 260 13.9
2003-09-23 07:48:43 51°10.67 2°41.45 263 13.4 258 14.1
2003-09-23 07:48:47 51°10.67 2°41.42 261.6 13.5 258 14.1
2003-09-23 07:48:53 51°10.66 2°41.39 261.3 13.6 257 14.3
2003-09-23 07:48:59 51°10.66 2°41.36 262.9 13.4 257 14.2
2003-09-23 07:49:03 51°10.66 2°41.33 262 13.4 257 14
2003-09-23 07:49:09 51°10.65 2°41.3 261.9 13.9 255 13.9
2003-09-23 07:49:13 51°10.65 2°41.27 262 13.6 261 14.2
2003-09-23 07:49:19 51°10.64 2°41.24 262.6 13.5 256 14.2
2003-09-23 07:49:23 51°10.64 2°41.21 262 13.5 259 14.2
2003-09-23 07:49:29 51°10.64 2°41.18 262.7 13.5 255 14.2
2003-09-23 07:49:31 51°10.63 2°41.17 261.9 13.7 258 14.1
2003-09-23 07:49:39 51°10.63 2°41.12 261.5 13.5 258 13.9
2003-09-23 07:49:43 51°10.62 2°41.1 262.4 13.3 258 13.9
2003-09-23 07:49:47 51°10.62 2°41.08 261.7 13.6 258 14.1
2003-09-23 07:49:53 51°10.62 2°41.04 261.9 13.5 259 14.1
2003-09-23 07:49:59 51°10.61 2°41.01 262.1 13.6 255 14.2
2003-09-23 07:50:03 51°10.61 2°40.98 262 13.4 259 14
2003-09-23 07:50:09 51°10.6 2°40.95 262.6 13.4 257 14.2
2003-09-23 07:50:13 51°10.6 2°40.92 262 13.6 258 14.3
2003-09-23 07:50:19 51°10.6 2°40.89 262 13.7 261 14.2
2003-09-23 07:50:23 51°10.59 2°40.86 263.8 13.5 258 14.2
2003-09-23 07:50:27 51°10.59 2°40.84 262.9 13.3 258 14.5
2003-09-23 07:50:33 51°10.58 2°40.81 262.9 13.2 258 14.2
2003-09-23 07:50:39 51°10.58 2°40.77 261.5 13.5 256 14.6
2003-09-23 07:50:43 51°10.58 2°40.75 261 13.7 258 14.2
2003-09-23 07:50:49 51°10.57 2°40.71 262.2 13.4 258 13.9
2003-09-23 07:50:53 51°10.57 2°40.69 262.2 13.3 258 14.2
2003-09-23 07:50:59 51°10.56 2°40.66 262.3 13.3 259 14.3
2003-09-23 07:51:03 51°10.56 2°40.63 262.3 13.5 257 14.2
2003-09-23 07:51:09 51°10.56 2°40.6 262 13.6 260 14.2
2003-09-23 07:51:13 51°10.55 2°40.58 262.6 13.5 257 14.9
2003-09-23 07:51:19 51°10.55 2°40.54 262.7 13.2 258 14.5
2003-09-23 07:51:23 51°10.54 2°40.52 262.6 13.4 256 14.5
2003-09-23 07:51:29 51°10.54 2°40.48 262 13.3 258 14.5
2003-09-23 07:51:33 51°10.54 2°40.46 261.3 13.5 256 14.4
2003-09-23 07:51:39 51°10.53 2°40.43 261.7 13.3 259 14.9
2003-09-23 07:51:43 51°10.53 2°40.4 262.8 13.3 256 14.9
2003-09-23 07:51:49 51°10.52 2°40.37 261.7 13.5 257 15.2
2003-09-23 07:51:53 51°10.52 2°40.34 262.1 13.5 259 14.9
2003-09-23 07:51:59 51°10.51 2°40.31 262.7 13.6 257 15
2003-09-23 07:52:03 51°10.51 2°40.29 262.9 13.5 260 14.9
2003-09-23 07:52:07 51°10.51 2°40.26 262.7 13.3 257 14.9
2003-09-23 07:52:11 51°10.51 2°40.24 262.2 13.3 259 14.7
2003-09-23 07:52:19 51°10.5 2°40.19 261.9 13.7 258 14.8
2003-09-23 07:52:23 51°10.5 2°40.17 262.7 13.7 260 15.1
2003-09-23 07:52:27 51°10.49 2°40.15 264 13.5 258 14.9
2003-09-23 07:52:33 51°10.49 2°40.11 263.4 13.5 259 15
2003-09-23 07:52:39 51°10.49 2°40.08 262.7 13.5 260 15.4
2003-09-23 07:52:43 51°10.48 2°40.05 262.7 13.6 256 15.2
2003-09-23 07:52:47 51°10.48 2°40.03 262.5 13.7 259 15.6
2003-09-23 07:52:53 51°10.47 2°39.99 263.1 13.5 258 15.8
2003-09-23 07:52:59 51°10.47 2°39.96 263.7 13.5 255 15.4
2003-09-23 07:53:03 51°10.47 2°39.94 262.2 13.4 258 15.4
2003-09-23 07:53:09 51°10.46 2°39.9 262 13.5 256 15.7
2003-09-23 07:53:13 51°10.46 2°39.88 261.2 13.6 258 15.3
2003-09-23 07:53:19 51°10.45 2°39.84 262 13.5 257 15.7
2003-09-23 07:53:23 51°10.45 2°39.82 262.1 13.5 256 16
2003-09-23 07:53:29 51°10.44 2°39.79 262 13.4 257 15.4
2003-09-23 07:53:33 51°10.44 2°39.76 262 13.4 257 15.6
2003-09-23 07:53:39 51°10.44 2°39.73 262.4 13.5 258 16
2003-09-23 07:53:43 51°10.43 2°39.7 262.5 13.5 257 16
2003-09-23 07:53:49 51°10.43 2°39.67 262.9 13.2 258 15.6
2003-09-23 07:53:53 51°10.42 2°39.65 261.9 13.3 257 16.2
2003-09-23 07:53:59 51°10.42 2°39.61 262.3 13.6 255 16.3
2003-09-23 07:54:03 51°10.42 2°39.59 263.1 13.4 261 16.1
2003-09-23 07:54:07 51°10.41 2°39.57 261.7 13.4 255 15.8
2003-09-23 07:54:13 51°10.41 2°39.53 262.7 13.3 258 15.6
2003-09-23 07:54:19 51°10.4 2°39.5 261.6 13.6 256 16
2003-09-23 07:54:23 51°10.4 2°39.47 262.2 13.5 259 15.9
2003-09-23 07:54:29 51°10.39 2°39.44 262.3 13.5 258 16.1
2003-09-23 07:54:33 51°10.39 2°39.42 262.8 13.4 259 16.1
2003-09-23 07:54:39 51°10.39 2°39.38 262.8 13.5 259 16.5
2003-09-23 07:54:43 51°10.38 2°39.36 263.1 13.5 257 16.5
2003-09-23 07:54:49 51°10.38 2°39.32 261.9 13.5 260 16.6
2003-09-23 07:54:51 51°10.38 2°39.31 262.7 13.5 256 16.7
2003-09-23 07:54:59 51°10.37 2°39.26 262.8 13.4 258 17
2003-09-23 07:55:03 51°10.37 2°39.24 262.3 13.6 257 16.7
2003-09-23 07:55:09 51°10.36 2°39.21 261.9 13.6 258 17.1
2003-09-23 07:55:13 51°10.36 2°39.18 262.3 13.7 256 16.9
2003-09-23 07:55:19 51°10.36 2°39.15 263 13.4 259 17.2
2003-09-23 07:55:23 51°10.35 2°39.12 262.7 13.5 256 17.4
2003-09-23 07:55:29 51°10.35 2°39.09 263 13.5 259 16.9
2003-09-23 07:55:33 51°10.34 2°39.07 262.5 13.4 256 16.8
2003-09-23 07:55:39 51°10.34 2°39.03 262.9 13.4 256 17.1
2003-09-23 07:55:43 51°10.34 2°39.01 261.7 13.4 257 17.1
2003-09-23 07:55:49 51°10.33 2°38.97 261.4 13.5 258 17.2
2003-09-23 07:55:53 51°10.33 2°38.95 261.9 13.7 257 17.7
2003-09-23 07:55:59 51°10.32 2°38.91 262.5 13.5 257 17.6
2003-09-23 07:56:03 51°10.32 2°38.89 262.5 13.3 258 17.5
2003-09-23 07:56:07 51°10.32 2°38.87 262.3 13.5 257 17.8
2003-09-23 07:56:13 51°10.31 2°38.83 262.4 13.5 257 17.6
2003-09-23 07:56:19 51°10.3 2°38.8 261.4 13.8 255 17.6
2003-09-23 07:56:23 51°10.3 2°38.77 262.4 13.5 259 17.9
2003-09-23 07:56:29 51°10.3 2°38.74 262.3 13.5 255 17.7
2003-09-23 07:56:33 51°10.29 2°38.72 261 13.7 258 17.9
2003-09-23 07:56:39 51°10.29 2°38.68 263.4 13.6 257 17.9
2003-09-23 07:56:43 51°10.28 2°38.66 262 13.8 255 18.2
2003-09-23 07:56:49 51°10.28 2°38.62 263.1 13.7 261 17.8
2003-09-23 07:56:53 51°10.28 2°38.6 262.3 13.4 257 17.6
2003-09-23 07:56:59 51°10.27 2°38.56 262 13.7 258 17.4
2003-09-23 07:57:03 51°10.27 2°38.54 261.9 13.5 259 17.2
2003-09-23 07:57:09 51°10.27 2°38.51 262 13.5 257 17.1
2003-09-23 07:57:13 51°10.26 2°38.48 261.7 13.5 258 17.5
2003-09-23 07:57:19 51°10.26 2°38.45 262 13.5 258 17.2
2003-09-23 07:57:23 51°10.25 2°38.42 262.4 13.4 257 17.9
2003-09-23 07:57:27 51°10.25 2°38.4 262.6 13.4 259 17.7
2003-09-23 07:57:31 51°10.25 2°38.38 261.8 13.6 259 17.9
2003-09-23 07:57:39 51°10.24 2°38.33 262.3 13.5 256 17.7
2003-09-23 07:57:43 51°10.24 2°38.31 261.3 13.5 258 18
2003-09-23 07:57:49 51°10.23 2°38.27 262.7 13.5 260 17.9
2003-09-23 07:57:53 51°10.23 2°38.25 262.5 13.7 256 18.4
2003-09-23 07:57:59 51°10.23 2°38.21 262.9 13.4 259 18.2
2003-09-23 07:58:03 51°10.22 2°38.19 262.9 13.6 255 17.8
2003-09-23 07:58:09 51°10.22 2°38.15 261.2 13.7 259 18.2
2003-09-23 07:58:13 51°10.21 2°38.13 263.5 13.5 258 18.4
2003-09-23 07:58:19 51°10.21 2°38.1 262.3 13.8 256 18.2
2003-09-23 07:58:23 51°10.21 2°38.07 262.7 13.6 261 18.3
2003-09-23 07:58:27 51°10.2 2°38.05 262.7 13.6 256 18.3
2003-09-23 07:58:31 51°10.2 2°38.03 262 13.7 260 18.7
2003-09-23 07:58:39 51°10.19 2°37.98 263.4 13.7 256 18.8
2003-09-23 07:58:43 51°10.19 2°37.96 262.6 13.6 258 19
2003-09-23 07:58:49 51°10.19 2°37.92 262.6 13.5 259 18.4
2003-09-23 07:58:53 51°10.18 2°37.9 261.9 13.7 257 18.6
2003-09-23 07:58:59 51°10.18 2°37.86 263.1 13.4 259 18.8
2003-09-23 07:59:03 51°10.18 2°37.84 261.2 13.5 255 19
2003-09-23 07:59:09 51°10.17 2°37.8 261.9 13.5 260 18.9
2003-09-23 07:59:13 51°10.17 2°37.78 262 13.5 257 18.9
2003-09-23 07:59:19 51°10.16 2°37.75 261.3 13.5 259 19.2
2003-09-23 07:59:23 51°10.16 2°37.72 262.6 13.5 258 18.9
2003-09-23 07:59:27 51°10.16 2°37.7 262 13.6 258 19
2003-09-23 07:59:31 51°10.15 2°37.68 262.3 13.4 258 18.4
2003-09-23 07:59:39 51°10.15 2°37.63 261.1 13.6 260 19.2
2003-09-23 07:59:43 51°10.14 2°37.61 261.9 13.7 256 19.4
2003-09-23 07:59:47 51°10.14 2°37.58 262.3 13.4 258 19.3
2003-09-23 07:59:53 51°10.14 2°37.55 262.7 13.4 260 19.3
2003-09-23 07:59:59 51°10.13 2°37.51 262.4 13.4 257 19.5
2003-09-23 08:00:03 51°10.13 2°37.49 261.9 13.6 257 19.3
2003-09-23 08:00:09 51°10.12 2°37.45 262.2 13.5 259 19.2
2003-09-23 08:00:13 51°10.12 2°37.43 262.3 13.4 259 19.7
2003-09-23 08:00:19 51°10.12 2°37.4 261.2 13.7 258 19.8
2003-09-23 08:00:23 51°10.11 2°37.37 262.2 13.4 262 19.3
2003-09-23 08:00:29 51°10.11 2°37.34 262.4 13.4 253 19.3
2003-09-23 08:00:33 51°10.11 2°37.31 260.5 13.4 254 19.4
2003-09-23 08:00:39 51°10.1 2°37.28 261.2 13.8 254 19.4
2003-09-23 08:00:43 51°10.1 2°37.26 261 13.5 259 19.9
2003-09-23 08:00:49 51°10.09 2°37.22 263.4 13.4 253 19.4
2003-09-23 08:00:53 51°10.09 2°37.2 261.9 13.2 262 19.5
2003-09-23 08:00:59 51°10.08 2°37.16 262.5 13.5 256 20.1
2003-09-23 08:01:03 51°10.08 2°37.14 262.5 13.4 259 19.9
2003-09-23 08:01:07 51°10.08 2°37.12 262 13.3 258 19.2
2003-09-23 08:01:13 51°10.07 2°37.08 261.6 13.4 257 19.8
2003-09-23 08:01:19 51°10.07 2°37.05 262.7 13.3 257 19.3
2003-09-23 08:01:23 51°10.07 2°37.03 262 13.2 258 19.8
2003-09-23 08:01:27 51°10.06 2°37 262.3 13.2 257 19.8
2003-09-23 08:01:33 51°10.06 2°36.97 261.6 13.2 258 19.7
2003-09-23 08:01:39 51°10.05 2°36.94 262.4 13.2 257 20
2003-09-23 08:01:43 51°10.05 2°36.91 261.5 13.2 256 19.6
2003-09-23 08:01:47 51°10.05 2°36.89 262.4 13.1 257 19.6
2003-09-23 08:01:53 51°10.04 2°36.86 262 13.1 258 19.4
2003-09-23 08:01:59 51°10.04 2°36.82 262.4 13.3 257 19.7
2003-09-23 08:02:03 51°10.04 2°36.8 262 13.1 257 20
2003-09-23 08:02:07 51°10.03 2°36.78 261.9 13.2 256 20
2003-09-23 08:02:13 51°10.03 2°36.74 262 13.3 257 19.9
2003-09-23 08:02:19 51°10.02 2°36.71 261.7 13 260 19.4
2003-09-23 08:02:23 51°10.02 2°36.69 262.8 13.1 258 19.1
2003-09-23 08:02:27 51°10.02 2°36.66 264.7 13.2 263 19.3
2003-09-23 08:02:33 51°10.02 2°36.63 266.4 13.3 263 19.8
2003-09-23 08:02:39 51°10.01 2°36.59 268.6 13.2 267 19.7
2003-09-23 08:02:43 51°10.01 2°36.57 270.6 13.2 267 19.9
2003-09-23 08:02:47 51°10.01 2°36.55 271.1 13.2 268 19.7
2003-09-23 08:02:53 51°10.01 2°36.51 272.1 13.1 269 19.5
2003-09-23 08:02:59 51°10.01 2°36.48 272.3 13.1 269 19.7
2003-09-23 08:03:03 51°10.01 2°36.45 272.8 13.1 269 19.7
2003-09-23 08:03:09 51°10.01 2°36.42 272.8 13.1 267 19.6
2003-09-23 08:03:13 51°10.01 2°36.4 271.6 13.2 268 19.8
2003-09-23 08:03:19 51°10.01 2°36.36 273 13.1 268 19.2
2003-09-23 08:03:23 51°10.01 2°36.34 273.2 13.2 274 19.8
2003-09-23 08:03:29 51°10.01 2°36.3 278.5 12.8 279 19.8
2003-09-23 08:03:33 51°10.02 2°36.28 282 12.9 280 19.7
2003-09-23 08:03:39 51°10.02 2°36.25 285 13 285 19.9
2003-09-23 08:03:43 51°10.03 2°36.23 288.7 13 286 19.9
2003-09-23 08:03:49 51°10.03 2°36.19 290.9 13 290 19.7
2003-09-23 08:03:53 51°10.04 2°36.17 292.6 13 290 19.7
2003-09-23 08:03:59 51°10.05 2°36.14 294 13 293 19.7
2003-09-23 08:04:03 51°10.05 2°36.12 296.1 13 294 19.6
2003-09-23 08:04:09 51°10.06 2°36.09 297.8 13 296 19.7
2003-09-23 08:04:13 51°10.07 2°36.07 299.4 12.9 297 18.7
2003-09-23 08:04:19 51°10.08 2°36.04 301.1 12.9 299 18.8
2003-09-23 08:04:23 51°10.09 2°36.02 303.1 13 302 18.7
2003-09-23 08:04:27 51°10.09 2°36 305.8 12.9 302 18.3
2003-09-23 08:04:33 51°10.11 2°35.97 306.6 13 305 17.5
2003-09-23 08:04:39 51°10.12 2°35.94 308.6 12.9 308 17.2
2003-09-23 08:04:43 51°10.13 2°35.93 312.2 12.7 312 16.4
2003-09-23 08:04:49 51°10.14 2°35.9 315.4 12.7 313 15.7
2003-09-23 08:04:53 51°10.15 2°35.89 317.3 12.7 315 14.8
2003-09-23 08:04:59 51°10.17 2°35.86 318.6 12.6 317 13.9
2003-09-23 08:05:03 51°10.18 2°35.85 320.5 12.8 319 13.8
2003-09-23 08:05:09 51°10.2 2°35.83 322.5 12.6 321 13.1
2003-09-23 08:05:13 51°10.21 2°35.81 325 12.7 322 12.7
2003-09-23 08:05:19 51°10.22 2°35.8 326.1 12.7 324 12.5
2003-09-23 08:05:23 51°10.24 2°35.78 327.5 12.7 325 12.3
2003-09-23 08:05:29 51°10.25 2°35.76 329.9 12.7 328 12.7
2003-09-23 08:05:33 51°10.27 2°35.75 331.2 12.7 328 12.5
2003-09-23 08:05:39 51°10.28 2°35.74 332.2 12.9 330 12.8
2003-09-23 08:05:43 51°10.3 2°35.72 333.6 12.8 331 12.9
2003-09-23 08:05:49 51°10.32 2°35.71 336 12.7 336 12.7
2003-09-23 08:05:53 51°10.33 2°35.7 338.5 12.8 339 12.6
2003-09-23 08:05:59 51°10.35 2°35.69 342.4 12.6 342 12.4
2003-09-23 08:06:03 51°10.36 2°35.69 346.9 12.5 346 13.1
2003-09-23 08:06:07 51°10.38 2°35.68 350 12.6 351 13.4
2003-09-23 08:06:11 51°10.39 2°35.68 353.1 12.7 353 13.3
2003-09-23 08:06:19 51°10.42 2°35.68 356.1 12.3 355 12.6
2003-09-23 08:06:23 51°10.43 2°35.67 358.5 12.3 356 12.3
2003-09-23 08:06:29 51°10.45 2°35.67 358.7 12.6 356 12.4
2003-09-23 08:06:33 51°10.47 2°35.67 359.4 12.6 357 12.8
2003-09-23 08:06:39 51°10.49 2°35.67 0.3 12.5 359 12.4
2003-09-23 08:06:43 51°10.5 2°35.67 2.6 12.6 3 12
2003-09-23 08:06:47 51°10.52 2°35.67 6.3 12.9 7 12.4
2003-09-23 08:06:53 51°10.54 2°35.68 8.7 12.7 6 12.4
2003-09-23 08:06:59 51°10.56 2°35.68 10.4 12.9 11 12.5
2003-09-23 08:07:03 51°10.57 2°35.69 12.4 13 8 12.6
2003-09-23 08:07:09 51°10.59 2°35.69 11.5 12.8 12 12.3
2003-09-23 08:07:13 51°10.61 2°35.7 12.7 12.8 11 12.4
2003-09-23 08:07:19 51°10.63 2°35.7 13.4 12.9 11 12.3
2003-09-23 08:07:23 51°10.64 2°35.71 12.9 12.7 11 12
2003-09-23 08:07:29 51°10.66 2°35.72 13.5 12.7 14 12.3
2003-09-23 08:07:33 51°10.68 2°35.72 14.5 12.8 12 12.5
2003-09-23 08:07:39 51°10.7 2°35.73 13.8 12.7 10 12.3
2003-09-23 08:07:43 51°10.71 2°35.73 12.7 12.8 11 12.5
2003-09-23 08:07:49 51°10.73 2°35.74 14 12.8 12 12.3
2003-09-23 08:07:53 51°10.75 2°35.74 13.6 12.6 10 11.8
2003-09-23 08:07:59 51°10.77 2°35.75 14 12.5 13 13.2
2003-09-23 08:08:03 51°10.78 2°35.75 14 12.2 11 12
2003-09-23 08:08:09 51°10.8 2°35.76 13.7 12.3 14 12
2003-09-23 08:08:13 51°10.81 2°35.77 15.1 12.4 13 12.2
2003-09-23 08:08:19 51°10.83 2°35.77 15.1 12.8 11 12.4
2003-09-23 08:08:23 51°10.85 2°35.78 12.9 12.6 11 12.6
2003-09-23 08:08:27 51°10.86 2°35.78 14 12.2 12 12.3
2003-09-23 08:08:33 51°10.88 2°35.79 13.2 12.3 12 11.4
2003-09-23 08:08:39 51°10.9 2°35.8 15.2 12.6 12 12.1
2003-09-23 08:08:43 51°10.92 2°35.8 14.4 12.7 9 12.5
2003-09-23 08:08:47 51°10.93 2°35.8 14.1 12.7 14 11.8
2003-09-23 08:08:53 51°10.95 2°35.81 14.3 12.9 13 12.2
2003-09-23 08:08:59 51°10.97 2°35.82 16.6 12.6 20 11.5
2003-09-23 08:09:03 51°10.98 2°35.83 21.3 12.6 21 11.4
2003-09-23 08:09:07 51°11 2°35.84 24.5 12.7 27 11.6
2003-09-23 08:09:13 51°11.01 2°35.86 27.3 12.6 28 12.5
2003-09-23 08:09:19 51°11.03 2°35.87 30.6 12.8 32 12.3
2003-09-23 08:09:23 51°11.04 2°35.89 33.4 13.1 35 12.4
2003-09-23 08:09:27 51°11.06 2°35.9 37.8 13.1 40 11.9
2003-09-23 08:09:33 51°11.07 2°35.93 40.7 13.1 44 12.5
2003-09-23 08:09:39 51°11.09 2°35.95 45.5 13 49 11.9
2003-09-23 08:09:43 51°11.09 2°35.97 49.6 13.1 50 12.2
2003-09-23 08:09:47 51°11.1 2°35.99 52.6 13 53 12
2003-09-23 08:09:53 51°11.12 2°36.02 55.8 13.1 56 12.4
2003-09-23 08:09:59 51°11.13 2°36.05 58.4 13.1 59 12.4
2003-09-23 08:10:03 51°11.13 2°36.07 60.9 13.3 61 12.3
2003-09-23 08:10:09 51°11.15 2°36.1 62 13.3 60 12.4
2003-09-23 08:10:13 51°11.15 2°36.12 62.3 13.4 63 13
2003-09-23 08:10:19 51°11.16 2°36.15 63.4 12.9 62 13
2003-09-23 08:10:23 51°11.17 2°36.17 65.4 13.2 68 12.5
2003-09-23 08:10:29 51°11.18 2°36.2 66.7 13.6 63 12.4
2003-09-23 08:10:33 51°11.18 2°36.22 65.9 13.4 62 12.7
2003-09-23 08:10:39 51°11.19 2°36.26 66.2 13.4 64 12.9
2003-09-23 08:10:43 51°11.2 2°36.28 65.1 13.6 59 13.2
2003-09-23 08:10:47 51°11.21 2°36.3 62.1 13.7 59 13
2003-09-23 08:10:53 51°11.22 2°36.33 59.3 13.6 54 13.4
2003-09-23 08:10:59 51°11.23 2°36.36 58.7 13.2 59 12.7
2003-09-23 08:11:03 51°11.24 2°36.38 58.5 13.1 56 13.4
2003-09-23 08:11:07 51°11.25 2°36.4 58.2 13.3 58 13.3
2003-09-23 08:11:13 51°11.26 2°36.42 58.6 13.2 53 13.1
2003-09-23 08:11:19 51°11.28 2°36.45 57 13.4 59 13.4
2003-09-23 08:11:23 51°11.28 2°36.47 57.5 13.3 54 13.4
2003-09-23 08:11:27 51°11.29 2°36.49 58 13.2 60 13.3
2003-09-23 08:11:33 51°11.3 2°36.52 59.8 13.2 58 13.2
2003-09-23 08:11:39 51°11.32 2°36.55 59.5 13.6 59 13.8
2003-09-23 08:11:43 51°11.32 2°36.57 59.8 13.6 57 13.7
2003-09-23 08:11:47 51°11.33 2°36.59 58.7 13.3 57 13.7
2003-09-23 08:11:53 51°11.35 2°36.62 58.1 13.4 56 13.3
2003-09-23 08:11:59 51°11.36 2°36.65 59.3 13.6 58 13.9
2003-09-23 08:12:03 51°11.37 2°36.67 59.9 13.7 57 13.7
2003-09-23 08:12:09 51°11.38 2°36.7 57.3 13.3 53 14.5
2003-09-23 08:12:13 51°11.39 2°36.72 57.3 13.2 58 14.1
2003-09-23 08:12:19 51°11.4 2°36.75 58.1 13.7 56 14.4
2003-09-23 08:12:23 51°11.41 2°36.77 57.4 13.6 55 14.8
2003-09-23 08:12:27 51°11.42 2°36.79 57.4 13.2 56 14.6
2003-09-23 08:12:31 51°11.42 2°36.81 59.3 13.1 57 14.1
2003-09-23 08:12:39 51°11.44 2°36.85 58.7 13.1 56 14.1
2003-09-23 08:12:43 51°11.45 2°36.87 58.4 13.2 59 14.4
2003-09-23 08:12:47 51°11.46 2°36.89 57.3 13 54 14.7
2003-09-23 08:12:53 51°11.47 2°36.91 58.2 13.1 59 14.5
2003-09-23 08:12:59 51°11.48 2°36.94 59.1 13.3 56 14.7
2003-09-23 08:13:03 51°11.49 2°36.96 59 13.3 58 15.3
2003-09-23 08:13:09 51°11.5 2°36.99 58.7 13.2 57 14.9
2003-09-23 08:13:13 51°11.51 2°37.01 58.7 13.1 56 15.1
2003-09-23 08:13:19 51°11.52 2°37.04 57.8 13.3 59 14.9
2003-09-23 08:13:23 51°11.53 2°37.06 59.7 13.3 57 15.6
2003-09-23 08:13:29 51°11.54 2°37.09 57.1 13.1 57 15.5
2003-09-23 08:13:33 51°11.55 2°37.11 59.3 13.2 57 15.4
2003-09-23 08:13:39 51°11.56 2°37.14 59.5 13.3 57 15.4
2003-09-23 08:13:43 51°11.57 2°37.16 58.2 13.2 53 15.8
2003-09-23 08:13:47 51°11.58 2°37.18 57.6 13.3 60 15.4
2003-09-23 08:13:53 51°11.59 2°37.21 58.5 13.5 56 15.7
2003-09-23 08:13:59 51°11.6 2°37.24 58.4 13.1 58 15.6
2003-09-23 08:14:03 51°11.61 2°37.26 60.7 13.1 60 15.4
2003-09-23 08:14:09 51°11.62 2°37.28 59.1 13.1 56 16
2003-09-23 08:14:13 51°11.63 2°37.3 58.6 13.2 60 15.9
2003-09-23 08:14:19 51°11.64 2°37.33 59.2 13.3 57 15.7
2003-09-23 08:14:23 51°11.65 2°37.35 60 13.2 59 15.3
2003-09-23 08:14:27 51°11.66 2°37.37 57.8 13.2 56 15.8
2003-09-23 08:14:31 51°11.66 2°37.39 59.1 13.1 57 15.4
2003-09-23 08:14:39 51°11.68 2°37.43 58.7 13.1 55 15.5
2003-09-23 08:14:43 51°11.69 2°37.45 57.9 13.2 56 15.5
2003-09-23 08:14:47 51°11.7 2°37.47 59.8 13.4 57 15.9
2003-09-23 08:14:53 51°11.71 2°37.5 59.1 13.4 57 15.5
2003-09-23 08:14:59 51°11.72 2°37.53 58.6 13.1 53 15.7
2003-09-23 08:15:03 51°11.73 2°37.55 57.7 13.1 60 15.7
2003-09-23 08:15:09 51°11.74 2°37.58 59.8 13.6 54 15.7
2003-09-23 08:15:13 51°11.75 2°37.6 58.5 13.3 58 16
2003-09-23 08:15:19 51°11.76 2°37.63 58.9 13 57 15.4
2003-09-23 08:15:23 51°11.77 2°37.65 60.1 13.4 56 15.7
2003-09-23 08:15:27 51°11.78 2°37.67 58.8 13.3 58 15.3
2003-09-23 08:15:33 51°11.79 2°37.7 59.4 13.4 56 15.6
2003-09-23 08:15:39 51°11.8 2°37.73 59.9 13.6 55 15.9
2003-09-23 08:15:43 51°11.81 2°37.75 59.5 13.6 57 15.9
2003-09-23 08:15:49 51°11.82 2°37.78 58.6 13.4 56 15.6
2003-09-23 08:15:53 51°11.83 2°37.8 57.4 13.4 53 15.7
2003-09-23 08:15:59 51°11.84 2°37.83 57.7 13.7 58 15.8
2003-09-23 08:16:03 51°11.85 2°37.84 57.7 13.5 52 15.6
2003-09-23 08:16:07 51°11.86 2°37.86 57.3 13.4 61 15.7
2003-09-23 08:16:11 51°11.87 2°37.88 60.9 13.4 54 16.1
2003-09-23 08:16:19 51°11.89 2°37.92 58.1 13.5 58 16.1
2003-09-23 08:16:23 51°11.9 2°37.94 58.5 13.4 55 15.8
2003-09-23 08:16:29 51°11.91 2°37.97 58.2 13.7 59 16.1
2003-09-23 08:16:33 51°11.92 2°37.99 58.7 13.4 55 16.1
2003-09-23 08:16:39 51°11.93 2°38.02 60.1 13.4 59 16.1
2003-09-23 08:16:43 51°11.94 2°38.04 58.9 13.6 52 15.9
2003-09-23 08:16:49 51°11.95 2°38.07 58.1 13.6 59 15.5
2003-09-23 08:16:53 51°11.96 2°38.09 59.7 13.5 53 15.7
2003-09-23 08:16:59 51°11.97 2°38.12 60.1 13.4 58 15.8
2003-09-23 08:17:03 51°11.98 2°38.14 59.8 13.4 57 15.9
2003-09-23 08:17:09 51°11.99 2°38.17 59 13.5 54 16.2
2003-09-23 08:17:13 51°12 2°38.19 56.9 13.2 57 15.6
2003-09-23 08:17:19 51°12.01 2°38.22 59.9 13.5 57 15.4
2003-09-23 08:17:23 51°12.02 2°38.24 60.5 13.3 57 15.4
2003-09-23 08:17:29 51°12.03 2°38.27 60.2 13.5 60 15.9
2003-09-23 08:17:33 51°12.04 2°38.29 60.2 13.3 54 16
2003-09-23 08:17:39 51°12.05 2°38.32 59.8 13.4 60 15.8
2003-09-23 08:17:43 51°12.06 2°38.34 60.3 13.4 55 15.6
2003-09-23 08:17:49 51°12.07 2°38.37 58.7 13.4 59 16.1
2003-09-23 08:17:53 51°12.08 2°38.39 59.6 13.2 57 16
2003-09-23 08:17:59 51°12.09 2°38.42 60.2 13.4 56 15.9
2003-09-23 08:18:03 51°12.1 2°38.44 58 13.4 54 15.8
2003-09-23 08:18:07 51°12.11 2°38.46 59.5 13.3 58 15.8
2003-09-23 08:18:11 51°12.11 2°38.48 59.4 13.3 56 15.9
2003-09-23 08:18:19 51°12.13 2°38.52 60.6 13.6 59 16.2
2003-09-23 08:18:23 51°12.14 2°38.54 60.9 13.7 58 15.6
2003-09-23 08:18:29 51°12.15 2°38.57 60.6 13.5 57 15.7
2003-09-23 08:18:33 51°12.16 2°38.59 59.4 13.4 57 16.3
2003-09-23 08:18:39 51°12.17 2°38.62 59.8 13.7 59 15.6
2003-09-23 08:18:43 51°12.18 2°38.64 59.6 13.6 53 15.6
2003-09-23 08:18:49 51°12.19 2°38.67 58 13.4 58 15.5
2003-09-23 08:18:53 51°12.2 2°38.69 58.2 13.3 54 14.7
2003-09-23 08:18:59 51°12.21 2°38.72 58 13.3 55 15.2
2003-09-23 08:19:03 51°12.22 2°38.74 58 13.2 56 15.3
2003-09-23 08:19:09 51°12.23 2°38.77 59.6 13.3 56 15.4
2003-09-23 08:19:13 51°12.24 2°38.79 59.8 13.5 58 15.5
2003-09-23 08:19:19 51°12.25 2°38.82 58.9 13.4 57 15.3
2003-09-23 08:19:23 51°12.26 2°38.84 60 13.3 59 15.7
2003-09-23 08:19:29 51°12.27 2°38.87 59.6 13.6 59 15.3
2003-09-23 08:19:33 51°12.28 2°38.89 59.4 13.5 55 15.2
2003-09-23 08:19:39 51°12.29 2°38.92 58.7 13.4 55 15.6
2003-09-23 08:19:43 51°12.3 2°38.94 58.5 13.4 58 15.2
2003-09-23 08:19:49 51°12.31 2°38.96 59.9 13.5 54 15.3
2003-09-23 08:19:53 51°12.32 2°38.98 58.2 13.5 57 15.5
2003-09-23 08:19:59 51°12.34 2°39.01 57.8 13.6 54 15.5
2003-09-23 08:20:03 51°12.34 2°39.03 58.8 13.6 59 15
2003-09-23 08:20:09 51°12.36 2°39.06 58.7 13.5 55 15.2
2003-09-23 08:20:13 51°12.36 2°39.08 59.5 13.5 59 15.3
2003-09-23 08:20:19 51°12.38 2°39.11 58.7 13.5 56 15
2003-09-23 08:20:23 51°12.39 2°39.13 59.3 13.5 57 15.5
2003-09-23 08:20:29 51°12.4 2°39.16 60.2 13.5 61 15.1
2003-09-23 08:20:33 51°12.41 2°39.18 61.2 13.8 56 14.9
2003-09-23 08:20:39 51°12.42 2°39.21 60.2 13.5 57 15
2003-09-23 08:20:43 51°12.43 2°39.24 60.2 13.8 58 15.4
2003-09-23 08:20:49 51°12.44 2°39.26 58.3 13.5 54 15.1
2003-09-23 08:20:53 51°12.45 2°39.28 58 13.5 56 15.2
2003-09-23 08:20:59 51°12.46 2°39.31 58.8 13.4 55 14.8
2003-09-23 08:21:03 51°12.47 2°39.33 58.4 13.4 57 14.8
2003-09-23 08:21:07 51°12.48 2°39.35 59.9 13.5 56 15.4
2003-09-23 08:21:13 51°12.49 2°39.38 58.7 13.4 56 15.2
2003-09-23 08:21:19 51°12.5 2°39.41 59.7 13.4 56 14.9
2003-09-23 08:21:23 51°12.51 2°39.43 59.1 13.7 58 15.1
2003-09-23 08:21:29 51°12.52 2°39.46 59.2 13.4 52 14.9
2003-09-23 08:21:33 51°12.53 2°39.48 57.7 13.4 58 15
2003-09-23 08:21:39 51°12.54 2°39.51 59.8 13.5 54 15
2003-09-23 08:21:43 51°12.55 2°39.53 58.2 13.5 57 15.1
2003-09-23 08:21:47 51°12.56 2°39.55 60.7 13.5 56 15.1
2003-09-23 08:21:53 51°12.57 2°39.58 59.8 13.4 56 15.3
2003-09-23 08:21:59 51°12.58 2°39.61 61.4 13.6 56 15.6
2003-09-23 08:22:03 51°12.59 2°39.63 59.5 13.4 56 14.9
2003-09-23 08:22:09 51°12.6 2°39.66 59.8 13.5 60 15.2
2003-09-23 08:22:13 51°12.61 2°39.68 60.9 13.7 54 15.1
2003-09-23 08:22:19 51°12.62 2°39.71 58.6 13.4 55 15.1
2003-09-23 08:22:23 51°12.63 2°39.73 58 13.4 57 15.2
2003-09-23 08:22:29 51°12.64 2°39.76 60.8 13.5 56 14.8
2003-09-23 08:22:33 51°12.65 2°39.78 59.6 13.5 55 15.1
2003-09-23 08:22:39 51°12.67 2°39.81 59.5 13.5 54 15.2